KBJI/BJI METAR and TAF weather

Enter ICAO airport designator
Station Type Date Time Source
KBJI METAR 2022/08/16 18:55 UTC NOAA

KBJI 161855Z AUTO 21011KT 10SM BKN038 BKN049 OVC065 25/17 A3009 RMK AO2 LTG DSNT N THRU E T02490170


Station Type Date Time Source
KBJI Decoded METAR 2022/08/16 18:55 UTC NOAA

Bemidji, MN, United States (KBJI) 47-30N 094-56W 420M
Aug 16, 2022 - 02:55 PM EDT / 2022.08.16 1855 UTC
Wind: from the SSW (210 degrees) at 13 MPH (11 KT):0
Visibility: 10 mile(s):0
Sky conditions: overcast
Weather: Lightning observed
Temperature: 76.8 F (24.9 C)
Dew Point: 62.6 F (17.0 C)
Relative Humidity: 61%
Pressure (altimeter): 30.09 in. Hg (1018 hPa)
ob: KBJI 161855Z AUTO 21011KT 10SM BKN038 BKN049 OVC065 25/17 A3009 RMK AO2 LTG DSNT N THRU E T02490170
cycle: 19

Station Type Date Time Source
KBJI TAF 2022/08/16 18:42 UTC NOAA

TAF KBJI 161740Z 1618/1718 22012G17KT P6SM SCT024 BKN040
FM170000 17007KT P6SM OVC100

Example: see airport list